createdAt,value
2023-11-15T00:00:53.610Z,4.96
2023-11-15T00:03:22.256Z,5.24
2023-11-15T00:05:50.414Z,4.98
2023-11-15T00:08:18.010Z,4.79
2023-11-15T00:10:45.811Z,4.93
2023-11-15T00:13:13.260Z,4.77
2023-11-15T00:15:41.014Z,4.92
2023-11-15T00:18:09.046Z,4.77
2023-11-15T00:20:36.616Z,4.54
2023-11-15T00:23:04.446Z,4.65
2023-11-15T00:25:32.599Z,4.54
2023-11-15T00:28:00.129Z,4.70
2023-11-15T00:30:27.501Z,4.79
2023-11-15T00:32:55.310Z,5.03
2023-11-15T00:35:23.810Z,4.71
2023-11-15T00:37:51.209Z,4.54
2023-11-15T00:40:19.050Z,4.49
2023-11-15T00:42:46.561Z,4.52
2023-11-15T00:45:14.023Z,4.69
2023-11-15T00:47:42.045Z,4.42
2023-11-15T00:50:09.803Z,4.60
2023-11-15T00:52:37.512Z,4.74
2023-11-15T00:55:05.913Z,5.00
2023-11-15T00:57:34.106Z,5.04
2023-11-15T01:00:02.477Z,4.85
2023-11-15T01:02:34.426Z,4.96
2023-11-15T01:05:01.922Z,4.87
2023-11-15T01:07:29.599Z,4.80
2023-11-15T01:09:57.008Z,4.58
2023-11-15T01:12:24.403Z,4.50
2023-11-15T01:14:52.261Z,4.53
2023-11-15T01:17:19.815Z,4.50
2023-11-15T01:19:47.260Z,4.51
2023-11-15T01:22:15.227Z,4.48
2023-11-15T01:24:42.833Z,4.44
2023-11-15T01:27:10.227Z,4.39
2023-11-15T01:29:38.424Z,4.51
2023-11-15T01:32:05.935Z,4.71
2023-11-15T01:34:33.268Z,4.75
2023-11-15T01:37:01.374Z,4.86
2023-11-15T01:39:29.679Z,4.16
2023-11-15T01:41:57.518Z,4.25
2023-11-15T01:44:26.339Z,4.47
2023-11-15T01:46:54.240Z,4.55
2023-11-15T01:49:23.072Z,4.61
2023-11-15T01:51:51.878Z,4.69
2023-11-15T01:54:20.062Z,4.89
2023-11-15T01:56:47.577Z,4.81
2023-11-15T01:59:15.769Z,5.04
2023-11-15T02:01:43.501Z,5.03
2023-11-15T02:04:11.524Z,5.08
2023-11-15T02:06:39.092Z,5.04
2023-11-15T02:09:06.971Z,5.01
2023-11-15T02:11:34.905Z,5.28
2023-11-15T02:14:02.362Z,5.13
2023-11-15T02:16:29.865Z,5.16
2023-11-15T02:18:57.839Z,5.27
2023-11-15T02:21:25.695Z,5.17
2023-11-15T02:23:53.308Z,5.35
2023-11-15T02:26:21.364Z,5.31
2023-11-15T02:28:49.268Z,5.21
2023-11-15T02:31:16.759Z,5.16
2023-11-15T02:33:46.362Z,5.28
2023-11-15T02:36:14.101Z,5.18
2023-11-15T02:38:41.476Z,4.91
2023-11-15T02:41:09.776Z,4.84
2023-11-15T02:43:37.676Z,5.03
2023-11-15T02:46:05.518Z,5.10
2023-11-15T02:48:33.859Z,5.05
2023-11-15T02:51:01.827Z,5.02
2023-11-15T02:53:29.265Z,5.20
2023-11-15T02:55:56.879Z,4.80
2023-11-15T02:58:24.613Z,4.92
2023-11-15T03:00:52.450Z,4.93
2023-11-15T03:03:20.306Z,5.08
2023-11-15T03:05:48.489Z,5.33
2023-11-15T03:08:19.187Z,5.33
2023-11-15T03:10:47.439Z,5.41
2023-11-15T03:13:15.271Z,5.56
2023-11-15T03:15:42.772Z,5.27
2023-11-15T03:18:11.434Z,5.19
2023-11-15T03:20:39.713Z,5.33
2023-11-15T03:23:07.166Z,5.49
2023-11-15T03:25:34.705Z,5.01
2023-11-15T03:28:02.570Z,5.07
2023-11-15T03:30:30.179Z,5.20
2023-11-15T03:32:58.156Z,5.07
2023-11-15T03:35:26.572Z,5.08
2023-11-15T03:37:53.952Z,5.10
2023-11-15T03:40:21.675Z,4.96
2023-11-15T03:42:49.582Z,5.04
2023-11-15T03:45:17.364Z,5.02
2023-11-15T03:47:45.084Z,4.98
2023-11-15T03:50:13.092Z,5.14
2023-11-15T03:52:40.507Z,5.19
2023-11-15T03:55:08.340Z,5.22
2023-11-15T03:57:36.984Z,5.48
2023-11-15T04:00:07.552Z,5.22
2023-11-15T04:02:41.108Z,5.10
2023-11-15T04:05:10.752Z,5.03
2023-11-15T04:07:38.865Z,5.19
2023-11-15T04:10:10.654Z,5.47
2023-11-15T04:12:42.510Z,5.65
2023-11-15T04:15:13.458Z,5.60
2023-11-15T04:17:41.931Z,6.04
2023-11-15T04:20:11.582Z,5.89
2023-11-15T04:22:39.732Z,5.99
2023-11-15T04:25:07.914Z,7.20
2023-11-15T04:27:35.338Z,9.46
2023-11-15T04:30:02.894Z,10.53
2023-11-15T04:32:32.289Z,11.41
2023-11-15T04:35:00.675Z,12.19
2023-11-15T04:37:28.120Z,12.83
2023-11-15T04:39:56.176Z,13.49
2023-11-15T04:42:24.278Z,13.52
2023-11-15T04:44:51.852Z,13.69
2023-11-15T04:47:20.282Z,13.80
2023-11-15T04:49:47.839Z,13.91
2023-11-15T04:52:15.428Z,14.05
2023-11-15T04:54:43.669Z,14.26
2023-11-15T04:57:11.493Z,14.15
2023-11-15T04:59:39.753Z,14.06
2023-11-15T05:02:08.017Z,14.10
2023-11-15T05:04:35.664Z,13.94
2023-11-15T05:07:03.248Z,14.05
2023-11-15T05:09:31.080Z,14.08
2023-11-15T05:11:58.794Z,14.02
2023-11-15T05:14:26.275Z,14.01
2023-11-15T05:16:54.160Z,13.99
2023-11-15T05:19:22.302Z,14.07
2023-11-15T05:21:50.464Z,13.99
2023-11-15T05:24:18.629Z,14.23
2023-11-15T05:26:46.630Z,14.08
2023-11-15T05:29:14.343Z,14.20
2023-11-15T05:31:42.286Z,14.16
2023-11-15T05:34:09.604Z,14.04
2023-11-15T05:36:36.943Z,14.13
2023-11-15T05:39:04.817Z,13.81
2023-11-15T05:41:32.205Z,14.24
2023-11-15T05:44:00.796Z,14.18
2023-11-15T05:46:28.494Z,14.34
2023-11-15T05:48:55.783Z,14.14
2023-11-15T05:51:23.169Z,14.14
2023-11-15T05:53:51.607Z,14.06
2023-11-15T05:56:19.207Z,14.21
2023-11-15T05:58:47.551Z,14.21
2023-11-15T06:01:15.611Z,14.15
2023-11-15T06:03:43.588Z,14.17
2023-11-15T06:06:11.094Z,14.17
2023-11-15T06:08:39.158Z,14.38
2023-11-15T06:11:07.209Z,14.49
2023-11-15T06:13:40.272Z,14.35
2023-11-15T06:16:08.703Z,14.47
2023-11-15T06:18:36.881Z,14.53
2023-11-15T06:21:04.676Z,14.63
2023-11-15T06:23:32.951Z,14.59
2023-11-15T06:26:00.721Z,14.58
2023-11-15T06:28:28.084Z,14.71
2023-11-15T06:30:55.997Z,14.75
2023-11-15T06:33:23.461Z,14.72
2023-11-15T06:35:50.931Z,14.59
2023-11-15T06:38:19.943Z,14.64
2023-11-15T06:40:47.347Z,14.56
2023-11-15T06:43:15.606Z,14.43
2023-11-15T06:45:43.481Z,14.47
2023-11-15T06:48:13.510Z,14.55
2023-11-15T06:50:41.031Z,14.44
2023-11-15T06:53:08.891Z,14.52
2023-11-15T06:55:36.407Z,14.57
2023-11-15T06:58:04.125Z,14.46
2023-11-15T07:00:34.363Z,14.39
2023-11-15T07:03:05.259Z,14.44
2023-11-15T07:05:33.279Z,14.51
2023-11-15T07:08:01.225Z,14.64
2023-11-15T07:10:31.047Z,14.66
2023-11-15T07:13:01.510Z,14.83
2023-11-15T07:15:29.460Z,15.24
2023-11-15T07:17:57.061Z,15.30
2023-11-15T07:20:24.996Z,15.56
2023-11-15T07:22:52.745Z,15.85
2023-11-15T07:25:20.237Z,16.02
2023-11-15T07:27:48.093Z,16.20
2023-11-15T07:30:16.976Z,16.26
2023-11-15T07:32:45.053Z,16.31
2023-11-15T07:35:12.901Z,16.60
2023-11-15T07:37:41.973Z,16.56
2023-11-15T07:40:14.565Z,16.68
2023-11-15T07:42:42.448Z,16.80
2023-11-15T07:45:10.537Z,16.99
2023-11-15T07:47:39.493Z,17.07
2023-11-15T07:50:08.234Z,16.82
2023-11-15T07:52:35.812Z,16.67
2023-11-15T07:55:03.603Z,16.67
2023-11-15T07:57:31.318Z,16.74
2023-11-15T07:59:59.007Z,16.94
2023-11-15T08:02:26.633Z,16.97
2023-11-15T08:04:55.044Z,16.88
2023-11-15T08:07:23.016Z,17.07
2023-11-15T08:09:50.632Z,17.07
2023-11-15T08:12:18.703Z,16.75
2023-11-15T08:14:46.220Z,16.85
2023-11-15T08:17:14.243Z,16.75
2023-11-15T08:19:43.081Z,16.67
2023-11-15T08:22:10.682Z,17.00
2023-11-15T08:24:38.263Z,17.35
2023-11-15T08:27:06.111Z,17.43
2023-11-15T08:29:33.661Z,17.68
2023-11-15T08:32:01.122Z,18.02
2023-11-15T08:34:30.997Z,18.17
2023-11-15T08:36:59.555Z,18.46
2023-11-15T08:39:28.939Z,18.63
2023-11-15T08:41:56.808Z,18.43
2023-11-15T08:44:24.527Z,18.66
2023-11-15T08:46:52.389Z,18.49
2023-11-15T08:49:22.002Z,18.47
2023-11-15T08:51:52.364Z,18.54
2023-11-15T08:54:20.367Z,18.50
2023-11-15T08:56:48.459Z,18.32
2023-11-15T08:59:16.813Z,18.34
2023-11-15T09:01:46.330Z,18.41
2023-11-15T09:04:15.024Z,18.52
2023-11-15T09:06:49.329Z,18.58
2023-11-15T09:09:18.866Z,18.51
2023-11-15T09:11:46.896Z,18.61
2023-11-15T09:14:16.079Z,18.75
2023-11-15T09:16:46.089Z,18.97
2023-11-15T09:19:18.706Z,18.87
2023-11-15T09:21:50.040Z,19.05
2023-11-15T09:24:24.062Z,19.24
2023-11-15T09:26:52.770Z,19.29
2023-11-15T09:29:21.125Z,18.77
2023-11-15T09:31:48.800Z,18.40
2023-11-15T09:34:17.752Z,18.66
2023-11-15T09:36:46.255Z,18.78
2023-11-15T09:39:17.789Z,18.72
2023-11-15T09:41:55.337Z,18.74
2023-11-15T09:44:25.338Z,18.13
2023-11-15T09:46:59.421Z,17.29
2023-11-15T09:49:27.833Z,16.80
2023-11-15T09:51:57.089Z,16.55
2023-11-15T09:54:25.280Z,16.25
2023-11-15T09:56:52.864Z,15.73
2023-11-15T09:59:21.171Z,14.93
2023-11-15T10:01:50.448Z,14.54
2023-11-15T10:04:23.665Z,14.64
2023-11-15T10:07:04.021Z,14.42
2023-11-15T10:09:41.895Z,13.87
2023-11-15T10:12:10.462Z,13.57
2023-11-15T10:14:54.410Z,13.65
2023-11-15T10:17:39.815Z,13.19
2023-11-15T10:20:27.360Z,13.44
2023-11-15T10:22:55.549Z,13.46
2023-11-15T10:25:27.057Z,13.21
2023-11-15T10:28:08.207Z,13.18
2023-11-15T10:30:36.286Z,13.16
2023-11-15T10:33:12.001Z,12.87
2023-11-15T10:35:40.610Z,12.89
2023-11-15T10:38:16.236Z,12.76
2023-11-15T10:40:45.367Z,12.77
2023-11-15T10:43:17.442Z,12.74
2023-11-15T10:45:45.509Z,12.35
2023-11-15T10:48:14.546Z,12.13
2023-11-15T10:50:47.026Z,12.01
2023-11-15T10:53:18.648Z,12.14
2023-11-15T10:55:47.240Z,12.00
2023-11-15T10:58:18.049Z,11.72
2023-11-15T11:00:48.571Z,11.61
2023-11-15T11:03:17.044Z,11.38
2023-11-15T11:05:58.921Z,11.15
2023-11-15T11:08:47.181Z,11.08
2023-11-15T11:11:33.321Z,11.07
2023-11-15T11:14:18.665Z,10.98
2023-11-15T11:16:47.383Z,10.97
2023-11-15T11:19:23.328Z,10.84
2023-11-15T11:22:07.306Z,10.90
2023-11-15T11:24:39.944Z,10.80
2023-11-15T11:27:13.515Z,10.91
2023-11-15T11:30:07.957Z,11.09
2023-11-15T11:32:37.163Z,11.21
2023-11-15T11:35:06.306Z,11.15
2023-11-15T11:38:01.587Z,10.87
2023-11-15T11:40:33.217Z,10.96
2023-11-15T11:43:23.892Z,10.76
2023-11-15T11:45:56.364Z,10.86
2023-11-15T11:48:26.751Z,10.80
2023-11-15T11:51:07.641Z,10.69
2023-11-15T11:53:46.451Z,10.71
2023-11-15T11:56:17.460Z,10.78
2023-11-15T11:58:45.263Z,10.65
2023-11-15T12:01:13.706Z,10.74
2023-11-15T12:03:49.680Z,10.55
2023-11-15T12:06:19.728Z,10.56
2023-11-15T12:08:51.396Z,10.41
2023-11-15T12:11:23.435Z,10.23
2023-11-15T12:13:52.873Z,10.33
2023-11-15T12:16:22.823Z,10.41
2023-11-15T12:19:06.889Z,10.43
2023-11-15T12:21:39.688Z,10.43
2023-11-15T12:24:08.070Z,10.29
2023-11-15T12:26:48.746Z,10.14
2023-11-15T12:29:21.613Z,10.34
2023-11-15T12:31:51.339Z,10.20
2023-11-15T12:34:20.440Z,10.15
2023-11-15T12:36:48.623Z,10.22
2023-11-15T12:39:17.857Z,10.40
2023-11-15T12:41:50.073Z,10.39
2023-11-15T12:44:18.096Z,10.52
2023-11-15T12:46:50.604Z,10.48
2023-11-15T12:49:23.853Z,10.47
2023-11-15T12:51:53.121Z,10.52
2023-11-15T12:54:20.703Z,10.67
2023-11-15T12:57:16.229Z,10.65
2023-11-15T12:59:49.460Z,10.60
2023-11-15T13:02:32.099Z,10.82
2023-11-15T13:05:04.801Z,10.71
2023-11-15T13:07:33.873Z,10.68
2023-11-15T13:10:02.032Z,10.52
2023-11-15T13:12:30.141Z,10.54
2023-11-15T13:14:57.676Z,10.51
2023-11-15T13:17:28.660Z,10.57
2023-11-15T13:20:01.518Z,10.75
2023-11-15T13:22:31.918Z,10.72
2023-11-15T13:24:59.587Z,10.76
2023-11-15T13:27:27.632Z,10.86
2023-11-15T13:29:55.618Z,10.78
2023-11-15T13:32:23.681Z,10.80
2023-11-15T13:34:52.369Z,10.71
2023-11-15T13:37:20.456Z,10.90
2023-11-15T13:39:48.361Z,10.89
2023-11-15T13:42:16.262Z,10.88
2023-11-15T13:44:44.407Z,10.85
2023-11-15T13:47:13.412Z,11.03
2023-11-15T13:49:45.697Z,10.87
2023-11-15T13:52:13.655Z,10.89
2023-11-15T13:54:41.123Z,10.80
2023-11-15T13:57:09.279Z,10.96
2023-11-15T13:59:37.187Z,10.92
2023-11-15T14:02:04.757Z,10.67
2023-11-15T14:04:32.589Z,10.72
2023-11-15T14:07:00.049Z,10.79
2023-11-15T14:09:30.044Z,10.80
2023-11-15T14:12:00.633Z,10.83
2023-11-15T14:14:28.557Z,10.87
2023-11-15T14:16:56.344Z,10.82
2023-11-15T14:19:25.997Z,10.79
2023-11-15T14:21:53.696Z,11.10
2023-11-15T14:24:21.513Z,11.09
2023-11-15T14:26:49.484Z,10.83
2023-11-15T14:29:17.210Z,10.70
2023-11-15T14:31:45.672Z,10.03
2023-11-15T14:34:13.604Z,10.33
2023-11-15T14:36:46.487Z,10.33
2023-11-15T14:39:14.587Z,10.54
2023-11-15T14:41:43.072Z,10.40
2023-11-15T14:44:10.556Z,10.56
2023-11-15T14:46:38.456Z,10.75
2023-11-15T14:49:06.119Z,10.51
2023-11-15T14:51:33.631Z,10.60
2023-11-15T14:54:02.324Z,10.65
2023-11-15T14:56:29.931Z,10.65
2023-11-15T14:59:00.102Z,10.62
2023-11-15T15:01:28.898Z,10.53
2023-11-15T15:03:56.921Z,10.42
2023-11-15T15:06:25.753Z,10.34
2023-11-15T15:08:53.653Z,10.16
2023-11-15T15:11:21.186Z,10.19
2023-11-15T15:13:48.604Z,9.76
2023-11-15T15:16:18.025Z,9.99
2023-11-15T15:18:45.481Z,10.06
2023-11-15T15:21:13.082Z,10.14
2023-11-15T15:23:40.942Z,10.05
2023-11-15T15:26:08.837Z,9.96
2023-11-15T15:28:36.311Z,9.97
2023-11-15T15:31:05.848Z,9.93
2023-11-15T15:33:33.433Z,9.92
2023-11-15T15:36:01.210Z,9.71
2023-11-15T15:38:30.986Z,9.63
2023-11-15T15:40:58.474Z,9.80
2023-11-15T15:43:26.136Z,9.73
2023-11-15T15:45:54.368Z,9.70
2023-11-15T15:50:53.965Z,9.75
2023-11-15T15:53:22.683Z,9.66
2023-11-15T15:55:50.176Z,9.65
2023-11-15T15:58:17.827Z,9.82
2023-11-15T16:00:46.338Z,9.82
2023-11-15T16:03:14.282Z,9.77
2023-11-15T16:05:41.850Z,9.68
2023-11-15T16:08:11.273Z,9.80
2023-11-15T16:10:39.152Z,9.90
2023-11-15T16:13:06.619Z,10.06
2023-11-15T16:15:34.239Z,10.11
2023-11-15T16:18:02.565Z,9.88
2023-11-15T16:20:30.410Z,9.82
2023-11-15T16:22:58.844Z,10.04
2023-11-15T16:25:27.738Z,9.91
2023-11-15T16:27:55.323Z,9.77
2023-11-15T16:30:24.933Z,9.63
2023-11-15T16:32:54.588Z,9.72
2023-11-15T16:35:22.249Z,9.40
2023-11-15T16:37:50.767Z,9.35
2023-11-15T16:40:18.638Z,9.50
2023-11-15T16:42:46.356Z,9.46
2023-11-15T16:45:14.759Z,9.44
2023-11-15T16:47:42.754Z,9.63
2023-11-15T16:50:10.682Z,9.54
2023-11-15T16:52:38.194Z,9.45
2023-11-15T16:55:13.898Z,9.39
2023-11-15T16:57:41.422Z,9.32
2023-11-15T17:00:10.496Z,9.37
2023-11-15T17:02:38.900Z,9.39
2023-11-15T17:05:06.730Z,9.58
2023-11-15T17:07:34.630Z,9.44
2023-11-15T17:10:02.130Z,9.32
2023-11-15T17:12:32.086Z,9.45
2023-11-15T17:15:00.588Z,9.41
2023-11-15T17:17:29.900Z,9.42
2023-11-15T17:19:58.567Z,9.27
2023-11-15T17:22:26.477Z,9.25
2023-11-15T17:24:54.199Z,9.25
2023-11-15T17:27:21.956Z,9.32
2023-11-15T17:29:52.040Z,9.25
2023-11-15T17:32:19.589Z,9.39
2023-11-15T17:34:47.327Z,9.35
2023-11-15T17:37:15.240Z,9.42
2023-11-15T17:39:42.759Z,9.18
2023-11-15T17:42:11.453Z,9.13
2023-11-15T17:44:39.407Z,9.23
2023-11-15T17:47:07.479Z,9.34
2023-11-15T17:49:36.459Z,9.19
2023-11-15T17:52:11.295Z,9.31
2023-11-15T17:54:38.891Z,8.98
2023-11-15T17:57:07.096Z,8.82
2023-11-15T17:59:34.705Z,8.90
2023-11-15T18:02:02.243Z,9.12
2023-11-15T18:04:30.138Z,9.18
2023-11-15T18:06:57.774Z,8.87
2023-11-15T18:09:25.407Z,8.97
2023-11-15T18:11:53.695Z,9.02
2023-11-15T18:14:21.327Z,9.01
2023-11-15T18:16:49.296Z,9.19
2023-11-15T18:19:22.473Z,9.15
2023-11-15T18:21:50.763Z,9.11
2023-11-15T18:24:19.320Z,9.07
2023-11-15T18:26:46.924Z,9.03
2023-11-15T18:29:14.707Z,9.01
2023-11-15T18:31:42.819Z,9.04
2023-11-15T18:34:11.268Z,8.93
2023-11-15T18:36:44.503Z,9.02
2023-11-15T18:39:16.077Z,8.96
2023-11-15T18:41:45.893Z,8.88
2023-11-15T18:44:17.539Z,8.75
2023-11-15T18:46:55.038Z,8.81
2023-11-15T18:49:24.399Z,9.17
2023-11-15T18:51:54.807Z,9.08
2023-11-15T18:54:24.244Z,8.98
2023-11-15T18:56:54.362Z,8.83
2023-11-15T18:59:22.047Z,9.03
2023-11-15T19:01:49.824Z,9.11
2023-11-15T19:04:20.375Z,9.06
2023-11-15T19:06:50.492Z,9.21
2023-11-15T19:09:25.389Z,9.13
2023-11-15T19:11:56.626Z,8.94
2023-11-15T19:14:26.270Z,8.91
2023-11-15T19:16:53.974Z,8.86
2023-11-15T19:19:23.749Z,9.01
2023-11-15T19:21:51.740Z,9.02
2023-11-15T19:24:19.821Z,9.18
2023-11-15T19:26:48.003Z,9.19
2023-11-15T19:29:16.824Z,9.24
2023-11-15T19:31:45.688Z,9.10
2023-11-15T19:34:18.760Z,9.03
2023-11-15T19:36:46.670Z,9.05
2023-11-15T19:39:16.003Z,9.18
2023-11-15T19:41:44.563Z,9.06
2023-11-15T19:44:12.523Z,8.78
2023-11-15T19:46:40.272Z,8.91
2023-11-15T19:49:09.330Z,8.65
2023-11-15T19:51:38.524Z,8.82
2023-11-15T19:54:08.932Z,8.90
2023-11-15T19:56:37.182Z,8.85
2023-11-15T19:59:05.229Z,8.63
2023-11-15T20:01:32.924Z,8.74
2023-11-15T20:04:05.045Z,8.72
2023-11-15T20:06:33.347Z,8.78
2023-11-15T20:09:01.558Z,8.74
2023-11-15T20:11:29.696Z,8.64
2023-11-15T20:13:57.114Z,8.62
2023-11-15T20:16:26.733Z,8.44
2023-11-15T20:18:55.144Z,8.48
2023-11-15T20:21:23.714Z,8.53
2023-11-15T20:23:54.198Z,8.61
2023-11-15T20:26:21.931Z,8.68
2023-11-15T20:28:49.516Z,8.54
2023-11-15T20:31:17.516Z,8.52
2023-11-15T20:33:45.182Z,8.61
2023-11-15T20:36:12.866Z,8.54
2023-11-15T20:38:40.872Z,8.70
2023-11-15T20:41:08.999Z,8.70
2023-11-15T20:43:37.322Z,8.98
2023-11-15T20:46:17.979Z,8.93
2023-11-15T20:48:47.671Z,8.71
2023-11-15T20:51:16.291Z,8.66
2023-11-15T20:53:45.112Z,8.60
2023-11-15T20:56:13.036Z,8.63
2023-11-15T20:58:41.723Z,8.69
2023-11-15T21:01:10.367Z,8.76
2023-11-15T21:03:38.589Z,8.68
2023-11-15T21:06:07.369Z,8.60
2023-11-15T21:08:36.515Z,8.55
2023-11-15T21:11:04.867Z,8.55
2023-11-15T21:13:32.832Z,8.53
2023-11-15T21:16:01.987Z,8.58
2023-11-15T21:18:29.348Z,8.44
2023-11-15T21:20:57.256Z,8.64
2023-11-15T21:23:26.075Z,8.79
2023-11-15T21:25:53.563Z,8.59
2023-11-15T21:28:21.391Z,8.43
2023-11-15T21:30:50.282Z,8.59
2023-11-15T21:33:17.837Z,8.40
2023-11-15T21:35:48.902Z,8.42
2023-11-15T21:38:19.143Z,8.51
2023-11-15T21:40:46.999Z,8.30
2023-11-15T21:43:15.328Z,8.41
2023-11-15T21:45:42.979Z,8.33
2023-11-15T21:48:11.048Z,8.48
2023-11-15T21:50:38.581Z,8.45
2023-11-15T21:53:06.171Z,8.13
2023-11-15T21:55:34.233Z,8.27
2023-11-15T21:58:03.220Z,8.44
2023-11-15T22:00:30.684Z,8.39
2023-11-15T22:02:58.653Z,8.42
2023-11-15T22:05:26.217Z,8.48
2023-11-15T22:07:54.282Z,8.49
2023-11-15T22:10:22.293Z,8.54
2023-11-15T22:12:49.802Z,8.49
2023-11-15T22:15:20.838Z,8.29
2023-11-15T22:17:49.353Z,8.34
2023-11-15T22:20:16.918Z,8.09
2023-11-15T22:22:44.566Z,8.09
2023-11-15T22:25:13.785Z,8.19
2023-11-15T22:27:41.306Z,8.13
2023-11-15T22:30:10.529Z,8.29
2023-11-15T22:32:38.706Z,8.32
2023-11-15T22:35:08.151Z,8.27
2023-11-15T22:37:35.717Z,8.39
2023-11-15T22:40:03.929Z,8.28
2023-11-15T22:42:32.283Z,8.17
2023-11-15T22:45:00.041Z,8.43
2023-11-15T22:47:27.913Z,8.46
2023-11-15T22:49:55.254Z,8.30
2023-11-15T22:52:22.755Z,8.27
2023-11-15T22:54:51.832Z,8.32
2023-11-15T22:57:19.536Z,8.29
2023-11-15T22:59:49.620Z,8.34
2023-11-15T23:02:19.042Z,8.43
2023-11-15T23:04:46.654Z,8.32
2023-11-15T23:07:14.248Z,8.45
2023-11-15T23:09:43.179Z,8.35
2023-11-15T23:12:11.782Z,8.20
2023-11-15T23:14:39.169Z,8.25
2023-11-15T23:17:07.159Z,8.11
2023-11-15T23:19:34.692Z,8.14
2023-11-15T23:22:04.239Z,8.17
2023-11-15T23:24:32.385Z,8.12
2023-11-15T23:27:00.587Z,8.32
2023-11-15T23:29:29.496Z,8.13
2023-11-15T23:31:58.188Z,8.14
2023-11-15T23:34:25.685Z,8.04
2023-11-15T23:36:53.350Z,8.00
2023-11-15T23:39:24.383Z,7.99
2023-11-15T23:41:52.120Z,7.83
2023-11-15T23:44:19.860Z,7.86
2023-11-15T23:46:50.998Z,7.82
2023-11-15T23:49:20.004Z,7.69
2023-11-15T23:51:47.760Z,7.63
2023-11-15T23:54:15.215Z,7.52
2023-11-15T23:56:43.318Z,7.72
2023-11-15T23:59:11.238Z,7.64
